Time,TemperatureF,DewpointF,PressureIn,WindDirection,WindDirectionDegrees,WindSpeedMPH,WindSpeedGustMPH,Humidity,HourlyPrecipIn,Conditions,Clouds,dailyrainin,SoftwareType,DateUTC
2013-01-24 00:14:00,28.0,24.0,30.10,SSW,207,8.0,23.0,86,0.00,,,0.00,weatherlink.com 1.10,2013-01-24 05:14:00,
2013-01-24 00:29:00,28.2,25.0,30.09,WNW,295,11.0,24.0,86,0.00,,,0.00,weatherlink.com 1.10,2013-01-24 05:29:00,
2013-01-24 00:44:00,28.2,25.0,30.09,WNW,290,11.0,20.0,87,0.00,,,0.00,weatherlink.com 1.10,2013-01-24 05:44:00,
2013-01-24 00:59:00,28.1,25.0,30.07,WNW,290,17.0,20.0,87,0.00,,,0.00,weatherlink.com 1.10,2013-01-24 05:59:00,
2013-01-24 01:14:00,28.1,25.0,30.07,NNW,337,8.0,21.0,87,0.00,,,0.00,weatherlink.com 1.10,2013-01-24 06:14:00,
2013-01-24 01:29:00,28.2,25.0,30.06,NNW,329,29.0,29.0,87,0.00,,,0.00,weatherlink.com 1.10,2013-01-24 06:29:00,
2013-01-24 01:44:00,28.2,25.0,30.05,NW,315,15.0,25.0,87,0.00,,,0.00,weatherlink.com 1.10,2013-01-24 06:44:00,
2013-01-24 01:59:00,28.2,25.0,30.05,NW,320,11.0,23.0,87,0.00,,,0.00,weatherlink.com 1.10,2013-01-24 06:59:00,
2013-01-24 02:14:00,28.0,25.0,30.05,NW,311,13.0,24.0,88,0.00,,,0.00,weatherlink.com 1.10,2013-01-24 07:14:00,
2013-01-24 02:29:00,27.8,25.0,30.03,NNW,339,3.0,24.0,88,0.00,,,0.00,weatherlink.com 1.10,2013-01-24 07:29:00,
2013-01-24 02:44:00,27.5,25.0,30.04,NE,47,11.0,22.0,89,0.00,,,0.00,weatherlink.com 1.10,2013-01-24 07:44:00,
2013-01-24 02:59:00,27.0,25.0,30.03,NNE,19,12.0,21.0,90,0.00,,,0.00,weatherlink.com 1.10,2013-01-24 07:59:00,
2013-01-24 03:14:00,26.8,24.0,30.03,NW,306,4.0,24.0,90,0.00,,,0.00,weatherlink.com 1.10,2013-01-24 08:14:00,
2013-01-24 03:29:00,26.4,24.0,30.02,NNW,348,12.0,23.0,90,0.00,,,0.00,weatherlink.com 1.10,2013-01-24 08:29:00,
2013-01-24 03:44:00,26.0,24.0,30.03,NW,304,8.0,33.0,91,0.00,,,0.00,weatherlink.com 1.10,2013-01-24 08:44:00,
2013-01-24 03:59:00,25.5,23.0,30.02,NNW,327,9.0,27.0,91,0.00,,,0.00,weatherlink.com 1.10,2013-01-24 08:59:00,
2013-01-24 04:14:00,25.1,23.0,30.00,WNW,300,9.0,22.0,91,0.00,,,0.00,weatherlink.com 1.10,2013-01-24 09:14:00,
2013-01-24 04:30:00,24.6,23.0,30.00,NW,323,16.0,29.0,92,0.00,,,0.00,weatherlink.com 1.10,2013-01-24 09:30:00,
2013-01-24 04:45:00,24.3,22.0,29.98,ESE,106,12.0,42.0,91,0.00,,,0.00,weatherlink.com 1.10,2013-01-24 09:45:00,
2013-01-24 04:59:00,24.0,22.0,29.99,NW,320,16.0,24.0,92,0.00,,,0.00,weatherlink.com 1.10,2013-01-24 09:59:00,
2013-01-24 05:14:00,23.4,22.0,29.98,WNW,286,17.0,26.0,93,0.00,,,0.00,weatherlink.com 1.10,2013-01-24 10:14:00,
2013-01-24 05:30:00,22.7,21.0,29.99,SW,230,9.0,25.0,93,0.00,,,0.00,weatherlink.com 1.10,2013-01-24 10:30:00,
2013-01-24 05:45:00,21.8,20.0,29.98,NNE,20,8.0,34.0,92,0.00,,,0.00,weatherlink.com 1.10,2013-01-24 10:45:00,
2013-01-24 06:00:00,20.8,19.0,30.00,NW,315,11.0,32.0,93,0.00,,,0.00,weatherlink.com 1.10,2013-01-24 11:00:00,
2013-01-24 06:15:00,20.1,18.0,29.99,NNW,334,22.0,29.0,92,0.00,,,0.00,weatherlink.com 1.10,2013-01-24 11:15:00,
2013-01-24 06:30:00,19.3,17.0,30.00,NW,309,19.0,33.0,89,0.00,,,0.00,weatherlink.com 1.10,2013-01-24 11:30:00,
2013-01-24 06:45:00,18.7,14.0,30.01,West,267,18.0,37.0,81,0.00,,,0.00,weatherlink.com 1.10,2013-01-24 11:45:00,
2013-01-24 07:00:00,18.0,14.0,30.02,WNW,284,14.0,32.0,83,0.00,,,0.00,weatherlink.com 1.10,2013-01-24 12:00:00,
2013-01-24 07:15:00,17.4,13.0,30.05,SSW,198,11.0,30.0,84,0.00,,,0.00,weatherlink.com 1.10,2013-01-24 12:15:00,
2013-01-24 07:30:00,16.9,14.0,30.04,WNW,296,16.0,34.0,87,0.00,,,0.00,weatherlink.com 1.10,2013-01-24 12:30:00,
2013-01-24 07:45:00,16.6,14.0,30.05,SE,138,4.0,28.0,88,0.00,,,0.00,weatherlink.com 1.10,2013-01-24 12:45:00,
2013-01-24 08:00:00,16.0,13.0,30.04,ESE,121,9.0,37.0,89,0.00,,,0.00,weatherlink.com 1.10,2013-01-24 13:00:00,
2013-01-24 08:15:00,15.6,13.0,30.04,NNW,333,6.0,27.0,90,0.00,,,0.00,weatherlink.com 1.10,2013-01-24 13:15:00,
2013-01-24 08:30:00,14.9,12.0,30.05,NNW,333,14.0,30.0,89,0.00,,,0.00,weatherlink.com 1.10,2013-01-24 13:30:00,
2013-01-24 08:45:00,14.6,11.0,30.04,WNW,302,14.0,32.0,87,0.00,,,0.00,weatherlink.com 1.10,2013-01-24 13:45:00,
2013-01-24 09:00:00,14.5,11.0,30.07,WSW,251,15.0,39.0,87,0.00,,,0.00,weatherlink.com 1.10,2013-01-24 14:00:00,
2013-01-24 09:16:00,14.4,12.0,30.05,NW,314,15.0,36.0,89,0.00,,,0.00,weatherlink.com 1.10,2013-01-24 14:16:00,
2013-01-24 09:30:00,14.4,12.0,30.07,NW,321,9.0,26.0,89,0.00,,,0.00,weatherlink.com 1.10,2013-01-24 14:30:00,
2013-01-24 09:46:00,14.3,12.0,30.06,WNW,302,9.0,27.0,89,0.00,,,0.00,weatherlink.com 1.10,2013-01-24 14:46:00,
2013-01-24 10:01:00,14.5,12.0,30.08,NW,318,21.0,32.0,88,0.00,,,0.00,weatherlink.com 1.10,2013-01-24 15:01:00,
2013-01-24 10:16:00,14.5,11.0,30.09,WSW,248,18.0,29.0,87,0.00,,,0.00,weatherlink.com 1.10,2013-01-24 15:16:00,
2013-01-24 10:31:00,14.2,11.0,30.11,WNW,295,17.0,26.0,85,0.00,,,0.00,weatherlink.com 1.10,2013-01-24 15:31:00,
2013-01-24 10:46:00,14.1,10.0,30.14,SE,132,4.0,24.0,85,0.00,,,0.00,weatherlink.com 1.10,2013-01-24 15:46:00,
2013-01-24 11:01:00,14.5,11.0,30.15,SSW,199,6.0,23.0,84,0.00,,,0.00,weatherlink.com 1.10,2013-01-24 16:01:00,
2013-01-24 11:16:00,14.7,9.0,30.17,ESE,102,2.0,19.0,78,0.00,,,0.00,weatherlink.com 1.10,2013-01-24 16:16:00,
2013-01-24 11:31:00,14.8,9.0,30.19,NNW,327,7.0,18.0,76,0.00,,,0.00,weatherlink.com 1.10,2013-01-24 16:31:00,
2013-01-24 11:46:00,14.3,5.0,30.19,NNW,332,6.0,23.0,67,0.00,,,0.00,weatherlink.com 1.10,2013-01-24 16:46:00,
2013-01-24 12:01:00,14.2,3.0,30.21,North,360,5.0,17.0,61,0.00,,,0.00,weatherlink.com 1.10,2013-01-24 17:01:00,
2013-01-24 12:16:00,14.5,2.0,30.21,West,279,5.0,18.0,58,0.00,,,0.00,weatherlink.com 1.10,2013-01-24 17:16:00,
2013-01-24 12:31:00,14.3,2.0,30.22,West,270,9.0,16.0,58,0.00,,,0.00,weatherlink.com 1.10,2013-01-24 17:31:00,
2013-01-24 12:46:00,14.0,2.0,30.22,NE,41,6.0,26.0,58,0.00,,,0.00,weatherlink.com 1.10,2013-01-24 17:46:00,
2013-01-24 13:01:00,14.6,2.0,30.23,WSW,250,9.0,16.0,57,0.00,,,0.00,weatherlink.com 1.10,2013-01-24 18:01:00,
2013-01-24 13:17:00,14.5,3.0,30.23,WNW,297,11.0,17.0,61,0.00,,,0.00,weatherlink.com 1.10,2013-01-24 18:17:00,
2013-01-24 13:32:00,14.7,4.0,30.24,ENE,75,4.0,16.0,62,0.00,,,0.00,weatherlink.com 1.10,2013-01-24 18:32:00,
2013-01-24 13:47:00,14.8,3.0,30.23,West,274,10.0,15.0,60,0.00,,,0.00,weatherlink.com 1.10,2013-01-24 18:47:00,
2013-01-24 14:02:00,15.2,4.0,30.23,West,260,6.0,11.0,62,0.00,,,0.00,weatherlink.com 1.10,2013-01-24 19:02:00,
2013-01-24 14:17:00,15.6,4.0,30.25,NW,306,4.0,11.0,61,0.00,,,0.00,weatherlink.com 1.10,2013-01-24 19:17:00,
2013-01-24 14:32:00,15.3,4.0,30.25,WNW,290,11.0,17.0,60,0.00,,,0.00,weatherlink.com 1.10,2013-01-24 19:32:00,
2013-01-24 14:47:00,15.1,4.0,30.27,NW,309,2.0,12.0,61,0.00,,,0.00,weatherlink.com 1.10,2013-01-24 19:47:00,
2013-01-24 15:02:00,15.3,4.0,30.27,West,277,2.0,9.0,61,0.00,,,0.00,weatherlink.com 1.10,2013-01-24 20:02:00,
2013-01-24 15:17:00,15.2,4.0,30.28,SW,215,0.0,9.0,62,0.00,,,0.00,weatherlink.com 1.10,2013-01-24 20:17:00,
2013-01-24 15:32:00,15.3,5.0,30.28,NW,311,4.0,11.0,63,0.00,,,0.00,weatherlink.com 1.10,2013-01-24 20:32:00,
2013-01-24 15:47:00,14.8,4.0,30.30,West,261,8.0,16.0,62,0.00,,,0.00,weatherlink.com 1.10,2013-01-24 20:47:00,
2013-01-24 16:02:00,14.7,3.0,30.30,WNW,288,2.0,13.0,60,0.00,,,0.00,weatherlink.com 1.10,2013-01-24 21:02:00,
2013-01-24 16:18:00,14.6,3.0,30.30,NW,304,12.0,13.0,60,0.00,,,0.00,weatherlink.com 1.10,2013-01-24 21:18:00,
2013-01-24 16:33:00,14.4,3.0,30.31,WNW,289,4.0,10.0,62,0.00,,,0.00,weatherlink.com 1.10,2013-01-24 21:33:00,
2013-01-24 16:48:00,14.4,3.0,30.31,West,276,2.0,11.0,62,0.00,,,0.00,weatherlink.com 1.10,2013-01-24 21:48:00,
2013-01-24 17:03:00,13.9,4.0,30.32,SW,224,0.0,7.0,64,0.00,,,0.00,weatherlink.com 1.10,2013-01-24 22:03:00,
2013-01-24 17:33:00,12.9,4.0,30.33,WSW,255,0.0,5.0,68,0.00,,,0.00,weatherlink.com 1.10,2013-01-24 22:33:00,
2013-01-24 17:48:00,12.4,3.0,30.33,WNW,300,4.0,5.0,67,0.00,,,0.00,weatherlink.com 1.10,2013-01-24 22:48:00,
2013-01-24 18:03:00,12.2,3.0,30.34,WNW,291,0.0,2.0,67,0.00,,,0.00,weatherlink.com 1.10,2013-01-24 23:03:00,
2013-01-24 18:18:00,11.8,3.0,30.34,NW,316,0.0,6.0,68,0.00,,,0.00,weatherlink.com 1.10,2013-01-24 23:18:00,
2013-01-24 18:33:00,11.5,2.0,30.36,NW,308,0.0,4.0,65,0.00,,,0.00,weatherlink.com 1.10,2013-01-24 23:33:00,
2013-01-24 18:48:00,11.3,3.0,30.37,SSE,160,2.0,5.0,68,0.00,,,0.00,weatherlink.com 1.10,2013-01-24 23:48:00,
2013-01-24 19:03:00,11.1,3.0,30.38,SSE,167,1.0,5.0,69,0.00,,,0.00,weatherlink.com 1.10,2013-01-25 00:03:00,
2013-01-24 19:19:00,11.2,2.0,30.37,SSE,150,6.0,11.0,66,0.00,,,0.00,weatherlink.com 1.10,2013-01-25 00:19:00,
2013-01-24 19:34:00,11.3,1.0,30.38,ENE,69,1.0,2.0,64,0.00,,,0.00,weatherlink.com 1.10,2013-01-25 00:34:00,
2013-01-24 19:48:00,14.4,-9.0,30.38,East,96,1.0,3.0,34,0.00,,,0.00,weatherlink.com 1.10,2013-01-25 00:48:00,
2013-01-24 20:04:00,16.4,-12.0,30.38,East,95,2.0,8.0,27,0.00,,,0.00,weatherlink.com 1.10,2013-01-25 01:04:00,
2013-01-24 20:19:00,16.7,-6.0,30.37,East,93,2.0,8.0,37,0.00,,,0.00,weatherlink.com 1.10,2013-01-25 01:19:00,
2013-01-24 20:34:00,17.6,-6.0,30.38,East,101,1.0,4.0,34,0.00,,,0.00,weatherlink.com 1.10,2013-01-25 01:34:00,
2013-01-24 20:49:00,17.6,-5.0,30.37,ESE,120,0.0,5.0,36,0.00,,,0.00,weatherlink.com 1.10,2013-01-25 01:49:00,
2013-01-24 21:04:00,17.9,-5.0,30.37,ESE,104,1.0,7.0,36,0.00,,,0.00,weatherlink.com 1.10,2013-01-25 02:04:00,
2013-01-24 21:19:00,17.3,-7.0,30.36,ENE,74,1.0,3.0,33,0.00,,,0.00,weatherlink.com 1.10,2013-01-25 02:19:00,
2013-01-24 21:34:00,16.4,-6.0,30.36,ENE,63,1.0,2.0,37,0.00,,,0.00,weatherlink.com 1.10,2013-01-25 02:34:00,
2013-01-24 21:49:00,13.8,-2.0,30.37,ENE,72,2.0,4.0,50,0.00,,,0.00,weatherlink.com 1.10,2013-01-25 02:49:00,
2013-01-24 22:04:00,11.9,-1.0,30.37,ENE,71,3.0,4.0,57,0.00,,,0.00,weatherlink.com 1.10,2013-01-25 03:04:00,
2013-01-24 22:19:00,11.3,-1.0,30.37,ENE,71,2.0,3.0,59,0.00,,,0.00,weatherlink.com 1.10,2013-01-25 03:19:00,
2013-01-24 22:34:00,11.9,0.0,30.38,ENE,73,4.0,4.0,58,0.00,,,0.00,weatherlink.com 1.10,2013-01-25 03:34:00,
2013-01-24 22:49:00,11.6,0.0,30.37,ENE,71,4.0,5.0,61,0.00,,,0.00,weatherlink.com 1.10,2013-01-25 03:49:00,
2013-01-24 23:04:00,10.9,1.0,30.37,ENE,71,7.0,7.0,64,0.00,,,0.00,weatherlink.com 1.10,2013-01-25 04:04:00,
2013-01-24 23:20:00,10.1,2.0,30.38,ENE,73,7.0,7.0,69,0.00,,,0.00,weatherlink.com 1.10,2013-01-25 04:20:00,
2013-01-24 23:35:00,9.7,1.0,30.38,ENE,68,5.0,8.0,69,0.00,,,0.00,weatherlink.com 1.10,2013-01-25 04:35:00,
2013-01-24 23:50:00,9.2,2.0,30.38,ENE,71,4.0,8.0,71,0.00,,,0.00,weatherlink.com 1.10,2013-01-25 04:50:00,